M I D A S
Marine Information and Data Acquisition System
Tripno 711 of the Zeeleeuw from 2004-05-07 07:14:48 to 2004-05-07 09:23:56
Back to CruiseResearch ActivitiesStationsMapUnderway DataData graphs

EquipmentUnitsComment
TimeDGPSUTC
LatitudeDGPSDM.mWGS84
LongitudeDGPSDM.mWGS84
TemperatureSBE03/SBE38deg celciusITS90
ConductivitySBE21S/mITS90
SalinitySBE21 Practical Salinity Units
ChlorophylAChelsea fluorimeterg/lCalibrated in Aceton
Missing or incorrect values are displayed as -999
Sea surface data collected by the RV Zeeleeuw from 2004-05-07 07:14:48 to 2004-05-07 09:23:56
Time Latitude Longitude Temperature Conductivity Salinity ChlorophylA
2004-05-07 07:15:50 51°13.595 2°56.095 18.672355 0.071589 0.382445 7.578683
2004-05-07 07:16:52 51°13.618 2°56.021 18.325493 0.071589 0.382469 7.578683
2004-05-07 07:17:52 51°13.651 2°55.904 18.37873 0.071589 0.382451 7.544973
2004-05-07 07:18:52 51°13.667 2°55.789 18.372932 0.071589 0.382475 7.578683
2004-05-07 07:19:50 51°13.672 2°55.785 18.400345 0.071589 0.382218 7.578683
2004-05-07 07:20:50 51°13.696 2°55.762 18.390822 0.071589 0.382576 7.646101
2004-05-07 07:21:50 51°13.793 2°55.673 18.317245 0.071589 0.382451 7.612392
2004-05-07 07:22:50 51°13.921 2°55.581 18.389621 0.071589 0.382463 7.578683
2004-05-07 07:23:50 51°14.054 2°55.481 18.375252 0.071589 0.382475 7.612392
2004-05-07 07:24:51 51°14.196 2°55.353 18.425968 0.071589 0.382517 7.646101
2004-05-07 07:25:50 51°14.319 2°55.153 18.392354 0.071589 0.382517 7.646101
2004-05-07 07:26:50 51°14.418 2°54.866 18.418683 0.071589 0.382546 7.612392
2004-05-07 07:27:51 51°14.405 2°54.493 18.470815 0.071589 0.382588 7.612392
2004-05-07 07:28:51 51°14.329 2°54.139 18.363737 0.071589 0.382588 7.679811
2004-05-07 07:29:50 51°14.217 2°53.816 18.381215 0.071589 0.382648 7.679811
2004-05-07 07:30:50 51°14.084 2°53.507 18.412433 0.071485 0.382116 7.679811
2004-05-07 07:31:51 51°13.94 2°53.195 18.433541 0.071485 0.382229 7.646101
2004-05-07 07:32:51 51°13.794 2°52.891 18.58351 0.071485 0.382337 7.71352
2004-05-07 07:33:51 51°13.666 2°52.561 19.44477 0.071485 0.382433 7.646101
2004-05-07 07:34:50 51°13.534 2°52.243 19.684468 0.071485 0.382534 7.646101
2004-05-07 07:35:51 51°13.415 2°51.898 19.547232 0.071485 0.382648 7.646101
2004-05-07 07:36:50 51°13.302 2°51.563 19.438979 0.071381 0.382193 7.646101
2004-05-07 07:37:50 51°13.184 2°51.221 19.667882 0.071381 0.382307 7.679811
2004-05-07 07:38:50 51°13.054 2°50.89 19.687882 0.071381 0.382397 7.679811
2004-05-07 07:39:50 51°12.92 2°50.564 19.526784 0.071381 0.382516 7.646101
2004-05-07 07:40:51 51°12.785 2°50.233 19.51831 0.071381 0.382648 7.679811
2004-05-07 07:41:51 51°12.651 2°49.912 19.70556 0.071277 0.382175 7.646101
2004-05-07 07:42:50 51°12.515 2°49.604 19.913991 0.071277 0.382271 7.679811
2004-05-07 07:43:50 51°12.403 2°49.266 19.560344 0.071277 0.382409 7.646101
2004-05-07 07:44:50 51°12.284 2°48.935 19.615863 0.071277 0.382535 7.679811
2004-05-07 07:45:51 51°12.159 2°48.602 19.788122 0.071277 0.382625 7.679811
2004-05-07 07:46:50 51°12.05 2°48.271 19.632298 0.071173 0.382181 7.646101
2004-05-07 07:47:51 51°11.929 2°47.937 19.674387 0.071173 0.382307 7.646101
2004-05-07 07:48:51 51°11.812 2°47.64 19.950607 0.071173 0.382433 7.679811
2004-05-07 07:49:50 51°11.771 2°47.481 19.620094 0.071173 0.382584 7.646101
2004-05-07 07:50:52 51°11.768 2°47.47 19.650641 0.071069 0.382127 7.646101
2004-05-07 07:51:51 51°11.769 2°47.461 19.657432 0.071069 0.382229 7.646101
2004-05-07 07:52:50 51°11.768 2°47.452 19.672882 0.071069 0.382314 7.646101
2004-05-07 07:53:51 51°11.764 2°47.441 19.686785 0.071069 0.38241 7.679811
2004-05-07 07:54:50 51°11.76 2°47.427 19.707023 0.070965 0.381911 7.646101
2004-05-07 07:55:51 51°11.753 2°47.412 19.694913 0.070965 0.381983 7.612392
2004-05-07 07:56:50 51°11.745 2°47.398 19.728271 0.070965 0.382049 7.646101
2004-05-07 07:57:51 51°11.735 2°47.382 19.737289 0.070965 0.382109 7.612392
2004-05-07 07:58:50 51°11.722 2°47.367 19.433717 0.070965 0.382176 7.646101
2004-05-07 07:59:50 51°11.709 2°47.354 19.528291 0.070965 0.382236 7.646101
2004-05-07 08:00:50 51°11.687 2°47.339 19.612811 0.070965 0.38229 7.679811
2004-05-07 08:01:50 51°11.642 2°47.225 19.594703 0.070861 0.381808 7.646101
2004-05-07 08:02:50 51°11.681 2°47.117 19.579602 0.070861 0.381821 7.612392
2004-05-07 08:03:50 51°11.742 2°47.156 19.544177 0.070861 0.381917 7.646101
2004-05-07 08:04:50 51°11.784 2°47.228 19.606464 0.070861 0.381959 7.612392
2004-05-07 08:05:51 51°11.812 2°47.308 19.595395 0.070861 0.382014 7.612392
2004-05-07 08:06:50 51°11.826 2°47.392 19.594662 0.070861 0.382068 7.646101
2004-05-07 08:07:50 51°11.839 2°47.476 19.597755 0.070861 0.382116 7.612392
2004-05-07 08:08:51 51°11.858 2°47.571 19.609068 0.070861 0.382146 7.612392
2004-05-07 08:09:51 51°11.875 2°47.667 19.638278 0.070861 0.382189 7.578683
2004-05-07 08:10:50 51°11.892 2°47.761 19.637749 0.070861 0.382231 7.646101
2004-05-07 08:11:49 51°11.906 2°47.847 19.614968 0.070861 0.382267 7.612392
2004-05-07 08:12:51 51°11.922 2°47.933 19.638725 0.070861 0.382304 7.612392
2004-05-07 08:13:50 51°11.943 2°48.01 19.64389 0.070861 0.382334 7.578683
2004-05-07 08:14:51 51°11.962 2°48.089 19.638888 0.070861 0.382364 7.612392
2004-05-07 08:15:51 51°11.981 2°48.167 19.646778 0.070861 0.382394 7.578683
2004-05-07 08:16:49 51°11.999 2°48.243 19.650031 0.070861 0.382437 7.578683
2004-05-07 08:17:50 51°12.026 2°48.317 19.647957 0.070861 0.382473 7.612392
2004-05-07 08:18:51 51°12.057 2°48.385 19.645314 0.070861 0.382515 7.578683
2004-05-07 08:19:50 51°12.088 2°48.451 19.646534 0.070861 0.382564 7.612392
2004-05-07 08:20:50 51°12.117 2°48.521 19.644704 0.070861 0.382618 7.578683
2004-05-07 08:21:51 51°12.147 2°48.593 19.652959 0.070757 0.382099 7.578683
2004-05-07 08:22:49 51°12.175 2°48.661 19.654179 0.070757 0.382154 7.578683
2004-05-07 08:23:49 51°12.204 2°48.73 19.656294 0.070757 0.382208 7.578683
2004-05-07 08:24:51 51°12.234 2°48.801 19.647957 0.070757 0.382269 7.578683
2004-05-07 08:25:50 51°12.262 2°48.87 19.662556 0.070757 0.382323 7.612392
2004-05-07 08:26:50 51°12.289 2°48.938 19.657351 0.070757 0.382378 7.612392
2004-05-07 08:27:50 51°12.317 2°49.007 19.651251 0.070757 0.382438 7.612392
2004-05-07 08:28:51 51°12.348 2°49.076 19.658042 0.070757 0.382493 7.578683
2004-05-07 08:29:51 51°12.377 2°49.144 19.659628 0.070757 0.382541 7.578683
2004-05-07 08:30:49 51°12.403 2°49.209 19.653895 0.070757 0.382584 7.578683
2004-05-07 08:31:51 51°12.429 2°49.278 19.665442 0.070757 0.382626 7.578683
2004-05-07 08:32:50 51°12.446 2°49.347 19.661986 0.070757 0.382675 7.544973
2004-05-07 08:33:50 51°12.465 2°49.412 19.653285 0.070757 0.382705 7.544973
2004-05-07 08:34:51 51°12.487 2°49.452 19.658042 0.070757 0.38276 7.578683
2004-05-07 08:35:51 51°12.506 2°49.463 19.657676 0.070757 0.38279 7.578683
2004-05-07 08:36:51 51°12.52 2°49.46 19.664304 0.070757 0.382833 7.544973
2004-05-07 08:37:51 51°12.53 2°49.449 19.659994 0.070653 0.382301 7.578683
2004-05-07 08:38:50 51°12.54 2°49.434 19.663288 0.070653 0.382343 7.544973
2004-05-07 08:39:50 51°12.572 2°49.446 19.663694 0.070653 0.382404 7.578683
2004-05-07 08:40:52 51°12.622 2°49.478 19.667272 0.070653 0.382446 7.578683
2004-05-07 08:41:51 51°12.675 2°49.547 19.666662 0.070653 0.382489 7.578683
2004-05-07 08:42:50 51°12.716 2°49.644 19.665239 0.070653 0.382538 7.544973
2004-05-07 08:43:50 51°12.762 2°49.741 19.663816 0.070653 0.382562 7.511264
2004-05-07 08:44:50 51°12.807 2°49.841 19.664548 0.070653 0.382592 7.578683
2004-05-07 08:45:51 51°12.853 2°49.944 19.700806 0.070653 0.382629 7.544973
2004-05-07 08:46:51 51°12.897 2°50.045 19.69219 0.070653 0.382665 7.578683
2004-05-07 08:47:50 51°12.942 2°50.144 19.698774 0.070653 0.382708 7.544973
2004-05-07 08:48:50 51°12.987 2°50.247 19.696051 0.070653 0.382738 7.544973
2004-05-07 08:49:51 51°13.032 2°50.352 19.696498 0.070653 0.382781 7.544973
2004-05-07 08:50:50 51°13.076 2°50.455 19.71775 0.070653 0.382818 7.544973
2004-05-07 08:51:50 51°13.121 2°50.561 19.712955 0.070653 0.38286 7.544973
2004-05-07 08:52:50 51°13.166 2°50.668 19.712224 0.070653 0.382903 7.544973
2004-05-07 08:53:50 51°13.212 2°50.778 19.720553 0.070653 0.382952 7.544973
2004-05-07 08:54:51 51°13.258 2°50.891 19.727134 0.070653 0.382994 7.578683
2004-05-07 08:55:50 51°13.305 2°51.003 19.738345 0.070653 0.383037 7.578683
2004-05-07 08:56:50 51°13.351 2°51.119 19.739279 0.070653 0.383074 7.578683
2004-05-07 08:57:51 51°13.391 2°51.245 19.748133 0.070653 0.38311 7.544973
2004-05-07 08:58:51 51°13.431 2°51.368 19.759137 0.070549 0.382565 7.578683
2004-05-07 08:59:50 51°13.47 2°51.491 19.770627 0.070549 0.382601 7.578683
2004-05-07 09:00:50 51°13.51 2°51.617 19.778746 0.070653 0.383214 7.578683
2004-05-07 09:01:50 51°13.549 2°51.742 19.784875 0.070549 0.382674 7.578683
2004-05-07 09:02:50 51°13.589 2°51.867 19.798633 0.070549 0.382717 7.578683
2004-05-07 09:03:51 51°13.628 2°51.993 19.807845 0.070549 0.38276 7.578683
2004-05-07 09:04:50 51°13.666 2°52.113 19.817501 0.070549 0.382808 7.612392
2004-05-07 09:05:51 51°13.705 2°52.236 19.829549 0.070549 0.382845 7.578683
2004-05-07 09:06:51 51°13.743 2°52.357 19.843907 0.070549 0.382876 7.612392
2004-05-07 09:07:51 51°13.781 2°52.477 19.855748 0.070549 0.382918 7.612392
2004-05-07 09:08:51 51°13.821 2°52.596 19.86483 0.070549 0.382949 7.612392
2004-05-07 09:09:52 51°13.859 2°52.719 19.87606 0.070549 0.382985 7.612392
2004-05-07 09:10:50 51°13.896 2°52.836 19.88903 0.070549 0.383028 7.544973
2004-05-07 09:11:50 51°13.935 2°52.957 19.902727 0.070549 0.383065 7.578683
2004-05-07 09:12:51 51°13.975 2°53.082 19.915085 0.070549 0.383108 7.578683
2004-05-07 09:13:50 51°14.038 2°53.267 19.937162 0.070549 0.383138 7.578683
2004-05-07 09:14:50 51°14.133 2°53.54 19.955223 0.070549 0.383175 7.578683
2004-05-07 09:15:50 51°14.231 2°53.822 19.897216 0.070549 0.383212 7.544973
2004-05-07 09:16:51 51°14.309 2°54.123 19.903902 0.070549 0.383248 7.578683
2004-05-07 09:17:50 51°14.402 2°54.404 19.957976 0.070549 0.383267 7.612392
2004-05-07 09:18:51 51°14.425 2°54.741 19.917435 0.070549 0.383303 7.578683
2004-05-07 09:19:51 51°14.355 2°55.055 19.93218 0.070549 0.383371 7.612392
2004-05-07 09:20:50 51°14.249 2°55.296 19.947732 0.070549 0.383414 7.612392
2004-05-07 09:21:51 51°14.146 2°55.427 19.93299 0.070549 0.383444 7.612392
2004-05-07 09:22:51 51°14.057 2°55.516 19.951983 0.070549 0.383463 7.578683
2004-05-07 09:23:51 51°13.975 2°55.6 19.988943 0.070549 0.383487 7.612392